Chimayo, NM (87522)

10:13 PM MDT on August 24, 2016 (GMT -0600)
KLDK-LP Studio | | Change Station

Elev 6053 ft 36.20 °N, 105.89 °W | Updated 3 minutes ago

Overcast
Overcast
57.7 °F
Feels Like 57.7 °F
N
0.0
Wind Variable Wind from SE

Today
High -- | Low -- °F
--% Chance of Precip.
Yesterday
High -- | Low -- °F
Precip. -- in
Pressure 30.32 in
Visibility 10.0 miles
Clouds Overcast 10000 ft
Dew Point 51 °F
Humidity 81%
Rainfall 0.00 in
Snow Depth Not available.
6:29 AM 7:41 PM
Waning Gibbous, 50% visible
METAR KLAM 250355Z AUTO 20003KT 10SM OVC100 15/06 A3032 RMK AO2 T01510059
Pressure 30.32 in
Visibility 10.0 miles
Clouds Overcast 10000 ft
Dew Point 51 °F
Humidity 81%
Rainfall 0.00 in
Snow Depth Not available.
6:29 AM 7:41 PM
Waning Gibbous, 50% visible
METAR KLAM 250355Z AUTO 20003KT 10SM OVC100 15/06 A3032 RMK AO2 T01510059

10-Day Weather Forecast

Almanac

Astronomy

Aug. 24, 2016 Rise Set
Actual Time
Civil Twilight
Nautical Twilight
Astronomical Twilight
Moon
Length of Visible Light
Length of Day
Tomorrow will be .
, % of the Moon is Illuminated

Today's Extremes

State Highs State Lows

Community

WunderPhotos

Upload Photos

1,934,796 photos uploaded!

WunderBlog® & News

Nearby

Air Quality

  Air Quality AQ Index Pollutant
Not available.

Snow Depth

Station Depth Elevation

Earthquake Activity

City Distance Mag. Time & Date
Minimum magnitude displayed is 2.5.

Coastal Water Temperatures

Place Temperature

Stations

Nearby Weather Stations

Station Location Temp. Windchill Dew Point Humidity Wind Precip. Elev Updated Type
                   

Watches & Warnings

There are currently no watches in effect.